Bienfait, Canada
Current Conditions -  °F | °C
As of 6:00 PM on Monday 24 Nov 2014 (Local Time) from CYEN Reporting Station
Light Snow Light Snow  
Wind Chill: 17°   Ceiling: 3400
Heat Index: 25°   Visibility: 2.5mi
Dew Point: 21°   Wind: 7mph
Humidity: 86%   Direction: 220°SW
Pressure: 29.92"   Gusts: NA
Location:  49.15°N, 102.8°W
Report Text: CYEN 250000Z 22006KT 2 1/2SM -SN OVC034 M04/M06 A2992 RMK SC8SLP177
Loading
Personal Weather Stations






























Interactive Weather Map New forecast layout! Learn more

10-Day Weather Forecast

Advertisements
Track Severe Weather on mobile